Time;durP1;ratioP1;P1;durP2;ratioP2;P2;SDS_P1;SDS_P2;PMS_P1;PMS_P2;Temp;Humidity;BMP_temperature;BMP_pressure;BME280_temperature;BME280_humidity;BME280_pressure;Samples;Min_cycle;Max_cycle;Signal;HPM_P1;HPM_P2
2021/11/22 00:01:24;;;;;;;18.45;6.97;;;;;;;;;;4936306;29;20028;-75
2021/11/22 00:03:50;;;;;;;13.57;7.60;;;;;;;;;;4938946;29;20031;-75
2021/11/22 00:06:16;;;;;;;12.20;8.45;;;;;;;;;;4936864;29;20086;-76
2021/11/22 00:08:42;;;;;;;15.00;11.57;;;;;;;;;;4937098;29;20067;-75
2021/11/22 00:11:08;;;;;;;11.85;9.60;;;;;;;;;;4940272;29;20567;-75
2021/11/22 00:13:34;;;;;;;9.55;7.55;;;;;;;;;;4941356;29;20051;-76
2021/11/22 00:16:00;;;;;;;7.60;5.60;;;;;;;;;;4940547;29;20514;-75
2021/11/22 00:18:27;;;;;;;10.48;5.55;;;;;;;;;;4939846;29;20059;-76
2021/11/22 00:20:53;;;;;;;10.50;5.53;;;;;;;;;;4940041;29;20031;-75
2021/11/22 00:23:19;;;;;;;17.80;8.30;;;;;;;;;;4941755;29;20035;-76
2021/11/22 00:25:45;;;;;;;10.48;7.32;;;;;;;;;;4940438;29;20436;-77
2021/11/22 00:28:11;;;;;;;9.27;6.45;;;;;;;;;;4940176;29;20056;-75
2021/11/22 00:30:38;;;;;;;11.68;7.38;;;;;;;;;;4941232;29;20059;-76
2021/11/22 00:33:04;;;;;;;15.98;9.02;;;;;;;;;;4940020;29;20040;-76
2021/11/22 00:35:32;;;;;;;15.73;7.63;;;;;;;;;;4941840;29;20055;-76
2021/11/22 00:37:59;;;;;;;17.13;9.43;;;;;;;;;;4940660;29;20098;-76
2021/11/22 00:40:25;;;;;;;8.27;4.80;;;;;;;;;;4940000;29;20060;-76
2021/11/22 00:42:51;;;;;;;14.57;12.50;;;;;;;;;;4939774;29;20028;-76
2021/11/22 00:45:17;;;;;;;13.18;6.32;;;;;;;;;;4939894;29;20042;-76
2021/11/22 00:47:44;;;;;;;11.35;7.68;;;;;;;;;;4940744;29;20493;-76
2021/11/22 00:50:10;;;;;;;24.90;10.98;;;;;;;;;;4941029;29;20034;-76
2021/11/22 00:52:37;;;;;;;18.58;9.77;;;;;;;;;;4940587;29;20130;-77
2021/11/22 00:55:03;;;;;;;18.10;9.30;;;;;;;;;;4945619;29;20036;-75
2021/11/22 00:57:29;;;;;;;12.98;7.30;;;;;;;;;;4939612;29;20110;-75
2021/11/22 00:59:56;;;;;;;12.52;8.35;;;;;;;;;;4939805;29;20542;-76
2021/11/22 01:02:22;;;;;;;11.05;7.10;;;;;;;;;;4940679;29;20039;-75
2021/11/22 01:04:48;;;;;;;6.72;4.97;;;;;;;;;;4940661;29;20394;-75
2021/11/22 01:07:14;;;;;;;10.50;7.07;;;;;;;;;;4940060;29;20479;-75
2021/11/22 01:09:41;;;;;;;13.95;5.80;;;;;;;;;;4940631;29;20028;-76
2021/11/22 01:12:07;;;;;;;16.20;7.93;;;;;;;;;;4939629;29;20083;-77
2021/11/22 01:14:35;;;;;;;14.50;9.10;;;;;;;;;;4938905;29;20395;-76
2021/11/22 01:17:01;;;;;;;16.83;8.93;;;;;;;;;;4939146;29;20034;-76
2021/11/22 01:19:27;;;;;;;22.95;9.90;;;;;;;;;;4939157;29;20083;-75
2021/11/22 01:21:53;;;;;;;20.30;9.55;;;;;;;;;;4921367;29;20089;-75
2021/11/22 01:24:19;;;;;;;19.40;10.00;;;;;;;;;;4939115;29;20387;-76
2021/11/22 01:26:45;;;;;;;25.15;13.23;;;;;;;;;;4938436;29;20028;-76
2021/11/22 01:29:11;;;;;;;19.42;11.57;;;;;;;;;;4921936;29;20395;-76
2021/11/22 01:31:37;;;;;;;18.30;11.63;;;;;;;;;;4939227;29;20087;-76
2021/11/22 01:34:04;;;;;;;21.92;12.52;;;;;;;;;;4922642;29;20027;-75
2021/11/22 01:36:30;;;;;;;23.20;9.95;;;;;;;;;;4938877;29;20030;-76
2021/11/22 01:38:56;;;;;;;20.77;11.27;;;;;;;;;;4921551;29;20039;-76
2021/11/22 01:41:22;;;;;;;15.38;8.55;;;;;;;;;;4938673;29;20027;-75
2021/11/22 01:43:49;;;;;;;16.95;8.02;;;;;;;;;;4921314;29;20055;-76
2021/11/22 01:46:16;;;;;;;12.85;7.53;;;;;;;;;;4939316;29;20019;-76
2021/11/22 01:48:42;;;;;;;13.80;8.50;;;;;;;;;;4938231;29;20035;-76
2021/11/22 01:51:08;;;;;;;32.47;20.13;;;;;;;;;;4938709;29;20475;-76
2021/11/22 01:53:35;;;;;;;15.45;9.48;;;;;;;;;;4938653;29;20052;-76
2021/11/22 01:56:01;;;;;;;10.98;6.70;;;;;;;;;;4940588;29;20036;-76
2021/11/22 01:58:27;;;;;;;18.52;7.28;;;;;;;;;;4937864;29;20491;-76
2021/11/22 02:00:54;;;;;;;8.07;5.55;;;;;;;;;;4921717;29;20024;-76
2021/11/22 02:03:20;;;;;;;9.40;5.68;;;;;;;;;;4938122;29;20036;-75
2021/11/22 02:05:51;;;;;;;8.65;4.88;;;;;;;;;;4938396;29;20110;-76
2021/11/22 02:08:17;;;;;;;9.52;5.95;;;;;;;;;;4938334;29;20046;-76
2021/11/22 02:10:43;;;;;;;9.57;6.95;;;;;;;;;;4937802;29;20019;-77
2021/11/22 02:13:15;;;;;;;8.93;4.60;;;;;;;;;;4939137;29;20458;-74
2021/11/22 02:15:42;;;;;;;10.07;5.57;;;;;;;;;;4938193;29;20455;-76
2021/11/22 02:18:08;;;;;;;9.43;5.88;;;;;;;;;;4939784;29;20391;-77
2021/11/22 02:20:35;;;;;;;11.48;5.63;;;;;;;;;;4921367;29;20487;-77
2021/11/22 02:23:02;;;;;;;9.05;5.20;;;;;;;;;;4937466;29;20099;-76
2021/11/22 02:25:29;;;;;;;12.18;6.15;;;;;;;;;;4938145;29;20119;-76
2021/11/22 02:27:55;;;;;;;8.35;5.18;;;;;;;;;;4938072;29;20090;-76
2021/11/22 02:30:29;;;;;;;12.38;5.65;;;;;;;;;;4937943;29;20491;-76
2021/11/22 02:32:55;;;;;;;9.73;6.05;;;;;;;;;;4924003;29;20031;-75
2021/11/22 02:35:21;;;;;;;11.02;6.13;;;;;;;;;;4937619;29;20032;-75
2021/11/22 02:37:48;;;;;;;10.25;6.03;;;;;;;;;;4938743;29;20035;-75
2021/11/22 02:40:15;;;;;;;8.35;6.13;;;;;;;;;;4938155;29;20490;-75
2021/11/22 02:42:45;;;;;;;13.27;5.95;;;;;;;;;;4937663;29;20036;-76
2021/11/22 02:45:12;;;;;;;11.38;7.10;;;;;;;;;;4937865;29;20027;-76
2021/11/22 02:47:38;;;;;;;10.75;6.50;;;;;;;;;;4942372;29;20541;-76
2021/11/22 02:50:05;;;;;;;10.80;7.00;;;;;;;;;;4939583;29;20028;-76
2021/11/22 02:52:31;;;;;;;11.32;6.50;;;;;;;;;;4937913;29;20055;-74
2021/11/22 02:54:58;;;;;;;11.35;6.80;;;;;;;;;;4937776;29;20035;-75
2021/11/22 02:57:24;;;;;;;12.25;5.93;;;;;;;;;;4937774;29;20031;-75
2021/11/22 02:59:50;;;;;;;8.52;6.15;;;;;;;;;;4937913;29;20097;-76
2021/11/22 03:02:16;;;;;;;10.63;7.07;;;;;;;;;;4936961;29;20503;-75
2021/11/22 03:04:43;;;;;;;13.50;7.80;;;;;;;;;;4938275;29;20034;-76
2021/11/22 03:07:10;;;;;;;14.18;7.80;;;;;;;;;;4938108;29;20045;-75
2021/11/22 03:09:37;;;;;;;10.63;7.07;;;;;;;;;;4937654;29;20498;-75
2021/11/22 03:12:05;;;;;;;12.85;7.28;;;;;;;;;;4936871;29;20054;-77
2021/11/22 03:14:32;;;;;;;12.82;7.68;;;;;;;;;;4938744;29;20110;-76
2021/11/22 03:16:58;;;;;;;7.65;5.80;;;;;;;;;;4937972;29;20487;-75
2021/11/22 03:19:25;;;;;;;13.93;6.20;;;;;;;;;;4937990;29;20059;-76
2021/11/22 03:21:51;;;;;;;13.55;7.03;;;;;;;;;;4938200;29;20032;-76
2021/11/22 03:24:18;;;;;;;11.90;7.35;;;;;;;;;;4937977;29;20019;-75
2021/11/22 03:26:44;;;;;;;11.45;6.53;;;;;;;;;;4937337;29;20060;-75
2021/11/22 03:29:10;;;;;;;11.05;7.25;;;;;;;;;;4936737;29;20027;-76
2021/11/22 03:31:37;;;;;;;10.55;7.10;;;;;;;;;;4938733;29;20035;-76
2021/11/22 03:34:04;;;;;;;9.93;6.72;;;;;;;;;;4938880;29;20036;-75
2021/11/22 03:36:32;;;;;;;11.77;6.78;;;;;;;;;;4920113;29;20036;-74
2021/11/22 03:38:59;;;;;;;13.63;7.05;;;;;;;;;;4937791;29;20480;-75
2021/11/22 03:41:27;;;;;;;9.85;6.40;;;;;;;;;;4938705;29;20082;-75
2021/11/22 03:44:10;;;;;;;10.10;6.00;;;;;;;;;;4938912;29;20027;-75
2021/11/22 03:46:37;;;;;;;13.00;6.32;;;;;;;;;;4938242;29;20031;-76
2021/11/22 03:49:03;;;;;;;18.27;7.75;;;;;;;;;;4939419;29;20027;-76
2021/11/22 03:51:29;;;;;;;12.38;7.20;;;;;;;;;;4938970;29;20028;-76
2021/11/22 03:53:55;;;;;;;14.95;7.28;;;;;;;;;;4938498;29;20051;-76
2021/11/22 03:56:21;;;;;;;15.88;8.60;;;;;;;;;;4938672;29;20031;-76
2021/11/22 03:58:47;;;;;;;9.90;7.00;;;;;;;;;;4940425;29;20110;-76
2021/11/22 04:01:14;;;;;;;13.13;6.72;;;;;;;;;;4938378;29;20032;-76
2021/11/22 04:03:40;;;;;;;12.80;7.28;;;;;;;;;;4938480;29;20027;-76
2021/11/22 04:06:06;;;;;;;12.32;7.68;;;;;;;;;;4938021;29;20039;-76
2021/11/22 04:08:32;;;;;;;10.48;6.90;;;;;;;;;;4938419;29;20064;-75
2021/11/22 04:10:58;;;;;;;12.60;6.85;;;;;;;;;;4937482;29;20031;-75
2021/11/22 04:13:28;;;;;;;10.65;6.50;;;;;;;;;;4937306;29;20398;-74
2021/11/22 04:15:54;;;;;;;15.95;7.68;;;;;;;;;;4937405;29;20380;-76
2021/11/22 04:18:20;;;;;;;12.25;7.05;;;;;;;;;;4938398;29;20039;-76
2021/11/22 04:20:46;;;;;;;14.50;7.72;;;;;;;;;;4936406;29;20106;-75
2021/11/22 04:23:16;;;;;;;13.73;7.82;;;;;;;;;;4937530;29;20067;-76
2021/11/22 04:25:42;;;;;;;12.00;7.55;;;;;;;;;;4922120;29;20063;-77
2021/11/22 04:28:10;;;;;;;16.42;7.93;;;;;;;;;;4936938;29;20035;-76
2021/11/22 04:30:37;;;;;;;14.13;6.97;;;;;;;;;;4937492;29;20020;-76
2021/11/22 04:33:03;;;;;;;11.88;6.88;;;;;;;;;;4936768;29;20491;-76
2021/11/22 04:35:29;;;;;;;12.43;6.35;;;;;;;;;;4937820;29;20027;-77
2021/11/22 04:37:55;;;;;;;13.15;6.60;;;;;;;;;;4937256;29;20043;-76
2021/11/22 04:40:22;;;;;;;8.60;6.55;;;;;;;;;;4937301;29;20031;-76
2021/11/22 04:42:49;;;;;;;9.75;6.38;;;;;;;;;;4937038;29;20518;-76
2021/11/22 04:45:21;;;;;;;10.05;6.40;;;;;;;;;;4936903;29;20079;-75
2021/11/22 04:47:47;;;;;;;15.20;8.13;;;;;;;;;;4937333;29;20032;-75
2021/11/22 04:50:14;;;;;;;9.93;6.40;;;;;;;;;;4937200;29;20099;-76
2021/11/22 04:52:40;;;;;;;13.73;7.20;;;;;;;;;;4936483;29;20059;-76
2021/11/22 04:55:09;;;;;;;9.38;6.07;;;;;;;;;;4937332;29;20038;-78
2021/11/22 04:57:38;;;;;;;9.25;5.68;;;;;;;;;;4939907;29;20023;-76
2021/11/22 05:00:05;;;;;;;9.90;6.55;;;;;;;;;;4923621;29;20032;-76
2021/11/22 05:02:31;;;;;;;9.93;6.15;;;;;;;;;;4940206;29;20032;-75
2021/11/22 05:04:57;;;;;;;12.68;6.45;;;;;;;;;;4940352;29;20105;-76
2021/11/22 05:07:23;;;;;;;11.13;6.15;;;;;;;;;;4940270;29;20111;-75
2021/11/22 05:09:49;;;;;;;13.13;6.93;;;;;;;;;;4939302;29;20114;-75
2021/11/22 05:12:16;;;;;;;8.48;5.97;;;;;;;;;;4940412;29;20039;-76
2021/11/22 05:14:42;;;;;;;13.43;7.57;;;;;;;;;;4940558;29;20038;-76
2021/11/22 05:17:08;;;;;;;8.20;6.25;;;;;;;;;;4940050;29;20036;-76
2021/11/22 05:19:35;;;;;;;11.77;6.65;;;;;;;;;;4939872;29;20039;-76
2021/11/22 05:22:01;;;;;;;8.23;6.10;;;;;;;;;;4940048;29;20032;-76
2021/11/22 05:24:28;;;;;;;11.73;6.22;;;;;;;;;;4939466;29;20031;-77
2021/11/22 05:26:54;;;;;;;9.55;5.47;;;;;;;;;;4939641;29;20538;-76
2021/11/22 05:29:20;;;;;;;10.27;5.32;;;;;;;;;;4939688;29;20070;-76
2021/11/22 05:31:47;;;;;;;11.20;6.57;;;;;;;;;;4939335;29;20028;-76
2021/11/22 05:34:13;;;;;;;10.75;6.75;;;;;;;;;;4940053;29;20066;-77
2021/11/22 05:36:39;;;;;;;8.40;5.63;;;;;;;;;;4939662;29;20032;-76
2021/11/22 05:39:06;;;;;;;10.80;6.47;;;;;;;;;;4922707;29;20491;-76
2021/11/22 05:41:32;;;;;;;10.20;6.10;;;;;;;;;;4939351;29;20570;-76
2021/11/22 05:43:58;;;;;;;8.25;5.65;;;;;;;;;;4939707;29;20107;-76
2021/11/22 05:46:24;;;;;;;9.02;6.88;;;;;;;;;;4939089;29;20059;-76
2021/11/22 05:48:51;;;;;;;6.63;5.45;;;;;;;;;;4940916;29;20112;-76
2021/11/22 05:51:18;;;;;;;9.70;5.75;;;;;;;;;;4940479;29;20035;-77
2021/11/22 05:53:49;;;;;;;7.43;5.63;;;;;;;;;;4939166;29;20063;-77
2021/11/22 05:56:17;;;;;;;10.90;5.63;;;;;;;;;;4939874;29;20027;-75
2021/11/22 05:58:44;;;;;;;10.85;5.97;;;;;;;;;;4921879;29;20055;-76
2021/11/22 06:01:11;;;;;;;9.55;5.80;;;;;;;;;;4939278;29;20105;-75
2021/11/22 06:03:37;;;;;;;9.73;6.22;;;;;;;;;;4938691;29;20040;-75
2021/11/22 06:06:03;;;;;;;7.72;4.95;;;;;;;;;;4938407;29;20062;-77
2021/11/22 06:08:29;;;;;;;9.85;5.32;;;;;;;;;;4938000;29;20483;-79
2021/11/22 06:10:56;;;;;;;8.02;5.35;;;;;;;;;;4939217;29;20082;-75
2021/11/22 06:13:22;;;;;;;8.25;6.07;;;;;;;;;;4938745;29;20618;-75
2021/11/22 06:15:48;;;;;;;8.82;5.75;;;;;;;;;;4939508;29;20386;-76
2021/11/22 06:18:18;;;;;;;8.07;4.90;;;;;;;;;;4939809;29;20027;-76
2021/11/22 06:20:44;;;;;;;7.57;5.55;;;;;;;;;;4938210;29;20499;-76
2021/11/22 06:23:10;;;;;;;7.68;5.13;;;;;;;;;;4938039;29;20038;-76
2021/11/22 06:25:37;;;;;;;8.40;5.30;;;;;;;;;;4939125;29;20047;-75
2021/11/22 06:28:03;;;;;;;11.35;5.65;;;;;;;;;;4939476;29;20055;-76
2021/11/22 06:30:30;;;;;;;10.38;5.60;;;;;;;;;;4938481;29;20032;-76
2021/11/22 06:32:56;;;;;;;9.50;5.75;;;;;;;;;;4939134;29;20439;-76
2021/11/22 06:35:25;;;;;;;11.75;6.15;;;;;;;;;;4939310;29;20486;-76
2021/11/22 06:37:52;;;;;;;13.07;5.95;;;;;;;;;;4938731;29;20031;-76
2021/11/22 06:40:18;;;;;;;9.98;5.55;;;;;;;;;;4938964;29;20040;-75
2021/11/22 06:42:45;;;;;;;12.20;5.90;;;;;;;;;;4921044;29;20431;-76
2021/11/22 06:45:11;;;;;;;12.75;7.32;;;;;;;;;;4937461;29;20079;-75
2021/11/22 06:47:38;;;;;;;12.77;6.45;;;;;;;;;;4938562;29;20028;-76
2021/11/22 06:50:04;;;;;;;10.93;6.07;;;;;;;;;;4938625;29;20131;-76
2021/11/22 06:52:30;;;;;;;8.10;5.22;;;;;;;;;;4938466;29;20048;-76
2021/11/22 06:54:57;;;;;;;9.82;5.72;;;;;;;;;;4937906;29;20032;-76
2021/11/22 06:57:23;;;;;;;8.18;5.68;;;;;;;;;;4938583;29;20031;-75
2021/11/22 06:59:50;;;;;;;9.52;5.90;;;;;;;;;;4938402;29;20024;-75
2021/11/22 07:02:16;;;;;;;9.75;5.60;;;;;;;;;;4937993;29;20479;-76
2021/11/22 07:04:46;;;;;;;8.10;5.38;;;;;;;;;;4937331;29;20106;-76
2021/11/22 07:07:13;;;;;;;10.50;5.63;;;;;;;;;;4938526;29;20083;-76
2021/11/22 07:09:49;;;;;;;7.47;5.38;;;;;;;;;;4937951;29;20379;-76
2021/11/22 07:12:15;;;;;;;7.18;4.97;;;;;;;;;;4937510;29;20530;-76
2021/11/22 07:14:43;;;;;;;7.80;6.13;;;;;;;;;;4938042;29;20039;-75
2021/11/22 07:17:09;;;;;;;10.57;5.90;;;;;;;;;;4920680;29;20450;-76
2021/11/22 07:19:35;;;;;;;9.73;6.20;;;;;;;;;;4920124;29;20118;-75
2021/11/22 07:22:05;;;;;;;11.27;5.95;;;;;;;;;;4937594;29;20387;-76
2021/11/22 07:24:32;;;;;;;8.13;6.28;;;;;;;;;;4937499;29;20518;-75
2021/11/22 07:26:58;;;;;;;10.32;6.90;;;;;;;;;;4937736;29;20032;-75
2021/11/22 07:29:24;;;;;;;11.35;6.78;;;;;;;;;;4937634;29;20109;-76
2021/11/22 07:31:50;;;;;;;12.38;7.07;;;;;;;;;;4937924;29;20039;-76
2021/11/22 07:34:16;;;;;;;8.57;6.18;;;;;;;;;;4937717;29;20032;-76
2021/11/22 07:36:42;;;;;;;9.95;6.00;;;;;;;;;;4937341;29;20048;-76
2021/11/22 07:39:08;;;;;;;9.85;6.50;;;;;;;;;;4937906;29;20032;-76
2021/11/22 07:41:34;;;;;;;8.57;6.70;;;;;;;;;;4938792;29;20059;-76
2021/11/22 07:44:00;;;;;;;13.38;6.47;;;;;;;;;;4937783;29;20059;-74
2021/11/22 07:46:27;;;;;;;15.23;7.82;;;;;;;;;;4937827;29;20028;-75
2021/11/22 07:48:55;;;;;;;11.68;7.05;;;;;;;;;;4937636;29;20095;-76
2021/11/22 07:51:21;;;;;;;14.52;8.18;;;;;;;;;;4938154;29;20023;-76
2021/11/22 07:53:47;;;;;;;15.20;8.15;;;;;;;;;;4937363;29;20115;-77
2021/11/22 07:56:14;;;;;;;13.65;8.45;;;;;;;;;;4937664;29;20138;-76
2021/11/22 07:58:40;;;;;;;12.55;8.63;;;;;;;;;;4937250;29;20028;-76
2021/11/22 08:01:06;;;;;;;10.40;7.22;;;;;;;;;;4936961;29;20495;-75
2021/11/22 08:03:33;;;;;;;10.98;7.28;;;;;;;;;;4936791;29;20495;-76
2021/11/22 08:05:59;;;;;;;12.00;6.93;;;;;;;;;;4936340;29;20016;-75
2021/11/22 08:08:29;;;;;;;12.90;7.85;;;;;;;;;;4932496;29;20028;-78
2021/11/22 08:13:40;;;;;;;13.15;6.70;;;;;;;;;;4930216;29;20455;-79
2021/11/22 08:16:08;;;;;;;12.52;6.78;;;;;;;;;;4938572;29;20047;-75
2021/11/22 08:18:34;;;;;;;10.57;6.30;;;;;;;;;;4936574;29;20028;-77
2021/11/22 08:21:01;;;;;;;11.98;6.32;;;;;;;;;;4939376;29;20046;-79
2021/11/22 08:23:28;;;;;;;7.85;5.70;;;;;;;;;;4937291;29;20031;-78
2021/11/22 08:25:55;;;;;;;11.00;5.13;;;;;;;;;;4937106;29;20031;-77
2021/11/22 08:28:21;;;;;;;15.18;7.38;;;;;;;;;;4936640;29;20028;-77
2021/11/22 08:30:47;;;;;;;15.48;8.20;;;;;;;;;;4936621;29;20031;-77
2021/11/22 08:33:15;;;;;;;10.43;6.85;;;;;;;;;;4939146;29;20517;-76
2021/11/22 08:35:41;;;;;;;10.45;6.40;;;;;;;;;;4943715;29;20582;-79
2021/11/22 08:38:11;;;;;;;9.52;6.55;;;;;;;;;;4944556;29;20114;-78
2021/11/22 08:40:40;;;;;;;13.82;7.60;;;;;;;;;;4932158;29;20502;-76
2021/11/22 08:43:10;;;;;;;14.60;8.18;;;;;;;;;;4918091;29;20168;-76
2021/11/22 08:45:37;;;;;;;11.10;6.93;;;;;;;;;;4869076;29;20407;-77
2021/11/22 08:48:06;;;;;;;13.20;7.35;;;;;;;;;;4887876;29;20037;-77
2021/11/22 08:50:32;;;;;;;11.52;7.70;;;;;;;;;;4866982;29;20392;-76
2021/11/22 08:52:58;;;;;;;13.45;8.68;;;;;;;;;;4884212;29;20071;-77
2021/11/22 08:55:28;;;;;;;14.23;7.93;;;;;;;;;;4885268;29;20025;-76
2021/11/22 08:57:55;;;;;;;12.23;6.43;;;;;;;;;;4883895;29;20021;-78
2021/11/22 09:00:24;;;;;;;11.50;7.55;;;;;;;;;;4883145;29;20025;-77
2021/11/22 09:02:51;;;;;;;9.68;5.95;;;;;;;;;;4913827;29;20436;-77
2021/11/22 09:05:17;;;;;;;10.70;6.25;;;;;;;;;;4899762;29;20053;-75
2021/11/22 09:07:43;;;;;;;10.75;6.57;;;;;;;;;;4901523;29;20084;-76
2021/11/22 09:10:09;;;;;;;9.10;5.18;;;;;;;;;;4885699;29;20032;-76
2021/11/22 09:12:37;;;;;;;11.02;5.80;;;;;;;;;;4902044;29;20765;-76
2021/11/22 09:15:03;;;;;;;12.23;6.82;;;;;;;;;;4901654;29;20028;-76
2021/11/22 09:17:30;;;;;;;14.15;6.13;;;;;;;;;;4882593;29;20087;-76
2021/11/22 09:19:56;;;;;;;14.27;6.60;;;;;;;;;;4901550;29;20029;-75
2021/11/22 09:22:22;;;;;;;12.48;7.63;;;;;;;;;;4901296;29;20033;-76
2021/11/22 09:24:48;;;;;;;8.85;5.95;;;;;;;;;;4903201;29;20088;-76
2021/11/22 09:27:14;;;;;;;10.63;5.80;;;;;;;;;;4900837;29;20033;-75
2021/11/22 09:29:40;;;;;;;8.10;5.35;;;;;;;;;;4900241;29;20036;-77
2021/11/22 09:32:07;;;;;;;9.30;6.53;;;;;;;;;;4896125;29;20048;-77
2021/11/22 09:34:33;;;;;;;10.65;5.43;;;;;;;;;;4895561;29;20560;-77
2021/11/22 09:36:59;;;;;;;9.45;5.88;;;;;;;;;;4895680;29;20036;-78
2021/11/22 09:39:26;;;;;;;10.43;6.55;;;;;;;;;;4895943;29;20056;-77
2021/11/22 09:41:52;;;;;;;8.02;5.50;;;;;;;;;;4895438;29;20412;-77
2021/11/22 09:44:23;;;;;;;9.05;5.88;;;;;;;;;;4896362;29;20104;-78
2021/11/22 09:46:51;;;;;;;9.30;5.53;;;;;;;;;;4895624;29;20025;-76
2021/11/22 09:49:17;;;;;;;9.57;6.15;;;;;;;;;;4896288;29;20041;-76
2021/11/22 09:51:43;;;;;;;9.98;5.43;;;;;;;;;;4896738;29;20064;-76
2021/11/22 09:54:10;;;;;;;9.25;4.90;;;;;;;;;;4896824;29;20048;-78
2021/11/22 09:56:37;;;;;;;9.95;6.68;;;;;;;;;;4897534;29;20051;-77
2021/11/22 09:59:03;;;;;;;11.63;5.95;;;;;;;;;;4897619;29;20056;-78
2021/11/22 10:01:34;;;;;;;9.95;5.70;;;;;;;;;;4896916;29;20036;-79
2021/11/22 10:04:05;;;;;;;8.30;5.30;;;;;;;;;;4897281;29;20029;-80
2021/11/22 10:06:47;;;;;;;8.57;5.60;;;;;;;;;;4901890;29;20103;-79
2021/11/22 10:09:33;;;;;;;7.35;5.28;;;;;;;;;;4880987;29;20024;-77
2021/11/22 10:12:10;;;;;;;10.05;5.40;;;;;;;;;;4898985;29;20063;-77
2021/11/22 10:14:40;;;;;;;8.65;4.70;;;;;;;;;;4903578;29;20035;-81
2021/11/22 10:17:25;;;;;;;9.18;5.38;;;;;;;;;;4900913;29;20044;-77
2021/11/22 10:20:06;;;;;;;9.20;6.07;;;;;;;;;;4898903;29;20040;-77
2021/11/22 10:22:51;;;;;;;11.15;6.32;;;;;;;;;;4896908;29;20032;-76
2021/11/22 10:25:21;;;;;;;7.70;5.13;;;;;;;;;;4897144;29;20029;-77
2021/11/22 10:27:48;;;;;;;9.85;5.72;;;;;;;;;;4896845;29;20036;-77
2021/11/22 10:30:21;;;;;;;8.63;5.40;;;;;;;;;;4897036;29;20036;-77
2021/11/22 10:32:49;;;;;;;13.63;7.65;;;;;;;;;;4895347;29;20037;-76
2021/11/22 10:35:16;;;;;;;11.35;6.00;;;;;;;;;;4897196;29;20047;-77
2021/11/22 10:37:54;;;;;;;8.55;5.95;;;;;;;;;;4899774;29;20027;-77
2021/11/22 10:40:24;;;;;;;10.50;6.78;;;;;;;;;;4884615;29;20088;-76
2021/11/22 10:42:50;;;;;;;9.73;6.03;;;;;;;;;;4900732;29;20503;-78
2021/11/22 10:45:33;;;;;;;8.40;5.68;;;;;;;;;;4904177;29;20028;-78
2021/11/22 10:48:18;;;;;;;7.63;5.68;;;;;;;;;;4903427;29;20036;-78
2021/11/22 10:50:53;;;;;;;10.40;6.78;;;;;;;;;;4882903;29;20056;-77
2021/11/22 10:53:27;;;;;;;9.98;5.63;;;;;;;;;;4903591;29;20039;-78
2021/11/22 10:55:53;;;;;;;16.25;6.60;;;;;;;;;;4895811;29;20037;-78
2021/11/22 10:58:38;;;;;;;11.73;5.88;;;;;;;;;;4902779;29;20142;-77
2021/11/22 11:01:30;;;;;;;10.32;5.57;;;;;;;;;;4918702;29;20566;-78
2021/11/22 11:04:02;;;;;;;6.60;5.75;;;;;;;;;;4882332;29;20052;-78
2021/11/22 11:06:41;;;;;;;8.55;5.47;;;;;;;;;;4891961;29;20028;-76
2021/11/22 11:09:15;;;;;;;7.63;4.88;;;;;;;;;;4905037;29;20028;-76
2021/11/22 11:11:41;;;;;;;10.20;4.70;;;;;;;;;;4886618;29;20120;-76
2021/11/22 11:14:11;;;;;;;6.05;4.22;;;;;;;;;;4909571;29;20128;-77
2021/11/22 11:16:38;;;;;;;7.05;4.50;;;;;;;;;;4904448;29;20033;-76
2021/11/22 11:19:06;;;;;;;8.75;4.20;;;;;;;;;;4915171;29;20032;-76
2021/11/22 11:21:36;;;;;;;8.07;4.15;;;;;;;;;;4902332;29;20477;-79
2021/11/22 11:24:03;;;;;;;8.63;5.47;;;;;;;;;;4893615;29;20024;-76
2021/11/22 11:26:30;;;;;;;9.95;5.72;;;;;;;;;;4903202;29;20028;-77
2021/11/22 11:28:56;;;;;;;7.38;4.35;;;;;;;;;;4899216;29;20049;-75
2021/11/22 11:31:22;;;;;;;7.13;5.43;;;;;;;;;;4904649;29;20024;-76
2021/11/22 11:33:48;;;;;;;6.93;4.32;;;;;;;;;;4900900;29;20036;-77
2021/11/22 11:36:27;;;;;;;7.22;5.50;;;;;;;;;;4904590;29;20039;-77
2021/11/22 11:39:00;;;;;;;13.38;5.60;;;;;;;;;;4905138;29;20065;-76
2021/11/22 11:41:35;;;;;;;6.75;4.45;;;;;;;;;;4908497;29;20131;-75
2021/11/22 11:44:01;;;;;;;8.95;5.65;;;;;;;;;;4898749;29;20045;-76
2021/11/22 11:46:46;;;;;;;11.23;6.25;;;;;;;;;;4901879;29;20036;-76
2021/11/22 11:49:13;;;;;;;9.13;4.67;;;;;;;;;;4889139;29;20024;-76
2021/11/22 11:52:03;;;;;;;9.80;5.47;;;;;;;;;;4905649;29;20020;-75
2021/11/22 11:54:30;;;;;;;9.63;4.75;;;;;;;;;;4899668;29;20029;-77
2021/11/22 11:56:57;;;;;;;6.53;4.65;;;;;;;;;;4899834;29;20039;-74
2021/11/22 11:59:23;;;;;;;6.05;4.75;;;;;;;;;;4896446;29;20052;-77
2021/11/22 12:02:05;;;;;;;6.88;4.95;;;;;;;;;;4899736;29;20039;-75
2021/11/22 12:05:00;;;;;;;7.75;5.18;;;;;;;;;;4904349;29;20047;-77
2021/11/22 12:07:54;;;;;;;10.77;6.53;;;;;;;;;;4881773;29;20041;-76
2021/11/22 12:10:29;;;;;;;7.57;5.40;;;;;;;;;;4902732;29;20547;-77
2021/11/22 12:12:55;;;;;;;8.93;5.20;;;;;;;;;;4906500;29;20036;-77
2021/11/22 12:15:21;;;;;;;11.13;6.03;;;;;;;;;;4906802;29;20033;-75
2021/11/22 12:17:47;;;;;;;7.35;5.30;;;;;;;;;;4907147;29;20074;-77
2021/11/22 12:20:23;;;;;;;8.30;5.53;;;;;;;;;;4913955;29;20384;-77
2021/11/22 12:22:53;;;;;;;7.60;6.32;;;;;;;;;;4917362;29;20463;-75
2021/11/22 12:25:38;;;;;;;6.03;4.20;;;;;;;;;;4897528;29;20028;-77
2021/11/22 12:28:05;;;;;;;8.45;5.07;;;;;;;;;;4913416;29;20029;-79
2021/11/22 12:30:32;;;;;;;6.95;5.00;;;;;;;;;;4907675;29;20024;-74
2021/11/22 12:33:17;;;;;;;8.05;4.53;;;;;;;;;;4891939;29;20028;-77
2021/11/22 12:35:43;;;;;;;8.35;4.75;;;;;;;;;;4913628;29;20098;-74
2021/11/22 12:38:35;;;;;;;7.57;5.35;;;;;;;;;;4906244;29;20037;-76
2021/11/22 12:41:06;;;;;;;7.55;4.78;;;;;;;;;;4898565;29;20064;-77
2021/11/22 12:43:51;;;;;;;6.82;3.95;;;;;;;;;;4917124;29;20588;-77
2021/11/22 12:46:25;;;;;;;7.00;4.10;;;;;;;;;;4910230;29;20111;-76
2021/11/22 12:48:56;;;;;;;6.95;4.45;;;;;;;;;;4901805;29;20059;-78
2021/11/22 12:51:24;;;;;;;7.97;4.60;;;;;;;;;;4903297;29;20116;-79
2021/11/22 12:54:12;;;;;;;5.15;3.78;;;;;;;;;;4906457;29;20056;-79
2021/11/22 12:56:51;;;;;;;6.80;4.35;;;;;;;;;;4891683;29;20044;-77
2021/11/22 12:59:25;;;;;;;8.38;5.03;;;;;;;;;;4910845;29;20115;-77
2021/11/22 13:01:58;;;;;;;5.80;4.50;;;;;;;;;;4920828;29;20118;-80
2021/11/22 13:04:44;;;;;;;7.22;4.90;;;;;;;;;;4893426;29;20032;-74
2021/11/22 13:07:29;;;;;;;7.72;3.67;;;;;;;;;;4914168;29;20134;-78
2021/11/22 13:09:55;;;;;;;8.85;4.10;;;;;;;;;;4907537;29;20037;-78
2021/11/22 13:12:31;;;;;;;7.82;4.15;;;;;;;;;;4917238;29;20657;-81
2021/11/22 13:15:03;;;;;;;8.75;4.60;;;;;;;;;;4884105;29;20043;-75
2021/11/22 13:17:29;;;;;;;7.07;4.03;;;;;;;;;;4896908;29;20037;-74
2021/11/22 13:19:59;;;;;;;6.03;3.38;;;;;;;;;;4902644;29;20395;-77
2021/11/22 13:22:25;;;;;;;6.15;3.80;;;;;;;;;;4894834;29;20411;-76
2021/11/22 13:24:51;;;;;;;6.85;3.88;;;;;;;;;;4882741;29;20092;-77
2021/11/22 13:27:17;;;;;;;9.57;4.10;;;;;;;;;;4902660;29;20042;-74
2021/11/22 13:29:43;;;;;;;7.70;4.40;;;;;;;;;;4914436;29;20039;-78
2021/11/22 13:32:10;;;;;;;6.95;4.25;;;;;;;;;;4910970;29;20459;-77
2021/11/22 13:34:36;;;;;;;6.53;3.58;;;;;;;;;;4880249;29;20036;-75
2021/11/22 13:37:10;;;;;;;6.35;3.75;;;;;;;;;;4880261;29;20049;-77
2021/11/22 13:39:37;;;;;;;9.93;4.95;;;;;;;;;;4907217;29;20031;-76
2021/11/22 13:42:06;;;;;;;20.27;8.32;;;;;;;;;;4911298;29;20063;-77
2021/11/22 13:44:39;;;;;;;11.55;6.05;;;;;;;;;;4900029;29;20021;-77
2021/11/22 13:47:07;;;;;;;15.32;7.80;;;;;;;;;;4902390;29;20040;-75
2021/11/22 13:49:33;;;;;;;8.68;4.18;;;;;;;;;;4911288;29;20036;-77
2021/11/22 13:52:00;;;;;;;11.38;6.30;;;;;;;;;;4899415;29;20088;-76
2021/11/22 13:54:27;;;;;;;6.47;3.40;;;;;;;;;;4886736;29;20044;-76
2021/11/22 13:56:57;;;;;;;6.43;3.35;;;;;;;;;;4875967;29;20031;-78
2021/11/22 13:59:44;;;;;;;8.13;5.20;;;;;;;;;;4886507;29;20202;-75
2021/11/22 14:02:12;;;;;;;13.30;6.32;;;;;;;;;;4872670;29;20040;-76
2021/11/22 14:04:43;;;;;;;9.52;5.85;;;;;;;;;;4895789;29;20029;-76
2021/11/22 14:07:10;;;;;;;6.20;3.63;;;;;;;;;;4883657;29;20033;-78
2021/11/22 14:09:36;;;;;;;7.65;3.38;;;;;;;;;;4882313;29;20576;-78
2021/11/22 14:12:05;;;;;;;5.38;2.33;;;;;;;;;;4885653;29;20502;-77
2021/11/22 14:14:32;;;;;;;4.03;2.60;;;;;;;;;;4881104;29;20061;-77
2021/11/22 14:16:59;;;;;;;4.57;2.33;;;;;;;;;;4877361;29;20038;-77
2021/11/22 14:19:27;;;;;;;4.50;2.30;;;;;;;;;;4870485;29;20033;-77
2021/11/22 14:21:54;;;;;;;5.10;2.08;;;;;;;;;;4867084;29;20037;-76
2021/11/22 14:24:21;;;;;;;6.78;2.33;;;;;;;;;;4892856;29;20061;-75
2021/11/22 14:26:52;;;;;;;5.43;2.25;;;;;;;;;;4894558;29;20025;-75
2021/11/22 14:29:23;;;;;;;3.58;2.10;;;;;;;;;;4885900;29;20035;-75
2021/11/22 14:31:51;;;;;;;4.68;2.33;;;;;;;;;;4904939;29;20038;-76
2021/11/22 14:34:18;;;;;;;4.78;2.70;;;;;;;;;;4895491;29;20025;-76
2021/11/22 14:36:46;;;;;;;3.75;2.20;;;;;;;;;;4897509;29;20051;-75
2021/11/22 14:39:13;;;;;;;6.68;2.42;;;;;;;;;;4907175;29;20094;-77
2021/11/22 14:41:58;;;;;;;7.15;3.67;;;;;;;;;;4901904;29;20815;-76
2021/11/22 14:44:24;;;;;;;6.90;3.10;;;;;;;;;;4908180;29;20059;-75
2021/11/22 14:46:51;;;;;;;4.90;2.83;;;;;;;;;;4904574;29;20108;-74